KMRH

Michael J Smith Field Airport

Beaufort, North Carolina, USA
METAR KMRH 141158Z AUTO 07004KT 10SM CLR 12/09 A3030 RMK AO2 SLP259 I1000 I6/// T01220094 10122 20067 55002
Observed Flight Rules
Dec-14 @ 11:58 UTC (22 minutes ago) Visual Flight Rules
Wind Visibility Clouds
70° at 4 knots 10 miles
  • Clear skies
Temperatures Readings
Current 12°C / 54°F
Dewpoint 9°C / 48°F
Humidity 82%
Altimeter 30.3" Hg
Pressure 1025.9 hPa
Elevation 3
METAR KMRH 141158Z AUTO 07004KT 10SM CLR 12/09 A3030 RMK AO2 SLP259 I1000 I6/// T01220094 10122 20067 55002
Observed Flight Rules
Dec-14 @ 11:58 UTC
(22 minutes ago)
VFR
Wind Visibility
70° at 4 knots 10 miles
Clouds
  • Clear skies
Temperature Dewpoint
12°C / 54°F 9°C / 48°F
Humidity Altimeter Pressure
82% 30.3" Hg 1025.9 hPa